createdAt,value
2023-01-25T00:01:52.621Z,55.20
2023-01-25T00:06:55.728Z,54.30
2023-01-25T00:11:58.310Z,66.57
2023-01-25T00:17:00.966Z,61.60
2023-01-25T00:22:03.458Z,62.73
2023-01-25T00:27:06.067Z,60.70
2023-01-25T00:32:32.549Z,58.83
2023-01-25T00:37:47.605Z,68.97
2023-01-25T00:42:50.137Z,46.67
2023-01-25T00:47:56.015Z,57.10
2023-01-25T00:52:58.514Z,53.80
2023-01-25T00:58:00.966Z,55.70
2023-01-25T01:03:03.627Z,51.07
2023-01-25T01:08:06.148Z,48.17
2023-01-25T01:13:08.654Z,52.03
2023-01-25T01:18:11.160Z,47.80
2023-01-25T01:23:13.649Z,54.43
2023-01-25T01:28:16.163Z,50.33
2023-01-25T01:33:18.670Z,42.33
2023-01-25T01:38:21.504Z,51.70
2023-01-25T01:43:24.938Z,44.00
2023-01-25T01:48:49.373Z,42.80
2023-01-25T01:54:02.737Z,46.40
2023-01-25T01:59:08.148Z,44.47
2023-01-25T02:04:12.066Z,49.23
2023-01-25T02:09:18.507Z,55.37
2023-01-25T02:14:21.538Z,47.03
2023-01-25T02:19:51.401Z,52.77
2023-01-25T02:25:11.531Z,45.63
2023-01-25T02:30:14.285Z,32.73
2023-01-25T02:35:24.839Z,37.83
2023-01-25T02:40:28.954Z,40.23
2023-01-25T02:45:31.865Z,47.57
2023-01-25T02:50:34.321Z,51.37
2023-01-25T02:55:37.075Z,38.00
2023-01-25T03:00:39.776Z,45.43
2023-01-25T03:05:42.331Z,42.20
2023-01-25T03:10:45.037Z,46.60
2023-01-25T03:15:47.624Z,43.30
2023-01-25T03:20:50.593Z,39.83
2023-01-25T03:25:53.503Z,46.07
2023-01-25T03:30:56.137Z,44.67
2023-01-25T03:35:59.348Z,40.17
2023-01-25T03:41:04.211Z,39.30
2023-01-25T03:46:08.513Z,40.67
2023-01-25T03:51:11.175Z,46.10
2023-01-25T03:56:20.020Z,38.27
2023-01-25T04:01:39.656Z,37.30
2023-01-25T04:06:42.236Z,36.00
2023-01-25T04:11:44.878Z,33.97
2023-01-25T04:16:48.849Z,36.60
2023-01-25T04:22:23.252Z,35.63
2023-01-25T04:27:29.000Z,34.83
2023-01-25T04:32:39.314Z,30.50
2023-01-25T04:37:58.505Z,41.43
2023-01-25T04:43:06.895Z,33.37
2023-01-25T04:48:12.523Z,34.40
2023-01-25T04:53:23.207Z,34.07
2023-01-25T04:58:26.941Z,35.03
2023-01-25T05:03:30.860Z,28.87
2023-01-25T05:08:33.950Z,27.83
2023-01-25T05:13:38.872Z,29.23
2023-01-25T05:19:01.480Z,28.97
2023-01-25T05:24:13.284Z,33.27
2023-01-25T05:29:16.157Z,32.43
2023-01-25T05:34:41.418Z,35.83
2023-01-25T05:39:44.721Z,15.30
2023-01-25T05:44:48.028Z,38.33
2023-01-25T05:49:51.754Z,32.60
2023-01-25T05:55:02.844Z,32.07
2023-01-25T06:00:06.868Z,27.67
2023-01-25T06:05:15.661Z,24.80
2023-01-25T06:10:19.225Z,28.23
2023-01-25T06:15:25.524Z,25.97
2023-01-25T06:20:30.418Z,28.17
2023-01-25T06:25:41.772Z,25.33
2023-01-25T06:30:44.343Z,20.87
2023-01-25T06:35:47.051Z,20.20
2023-01-25T06:40:49.596Z,19.23
2023-01-25T06:45:52.096Z,13.43
2023-01-25T06:50:56.685Z,11.80
2023-01-25T06:56:06.574Z,16.60
2023-01-25T07:01:16.761Z,15.67
2023-01-25T07:06:19.761Z,16.10
2023-01-25T07:11:22.324Z,15.87
2023-01-25T07:16:24.802Z,15.57
2023-01-25T07:21:27.572Z,11.93
2023-01-25T07:26:30.974Z,11.80
2023-01-25T07:31:33.736Z,9.00
2023-01-25T07:36:36.898Z,11.37
2023-01-25T07:41:40.328Z,11.07
2023-01-25T07:46:47.734Z,9.73
2023-01-25T07:51:50.278Z,8.43
2023-01-25T07:56:52.799Z,9.40
2023-01-25T08:01:55.406Z,14.07
2023-01-25T08:06:57.959Z,10.37
2023-01-25T08:12:00.594Z,11.43
2023-01-25T08:17:03.042Z,9.03
2023-01-25T08:22:08.694Z,11.80
2023-01-25T08:27:11.411Z,13.37
2023-01-25T08:32:13.961Z,14.83
2023-01-25T08:37:16.845Z,11.90
2023-01-25T08:42:20.560Z,11.80
2023-01-25T08:47:23.437Z,10.90
2023-01-25T08:52:25.973Z,9.53
2023-01-25T08:57:28.664Z,12.47
2023-01-25T09:02:31.117Z,11.77
2023-01-25T09:07:37.872Z,15.43
2023-01-25T09:12:40.428Z,12.43
2023-01-25T09:17:43.049Z,10.50
2023-01-25T09:22:45.672Z,14.17
2023-01-25T09:27:51.467Z,18.57
2023-01-25T09:32:54.202Z,10.33
2023-01-25T09:37:57.077Z,10.40
2023-01-25T09:43:21.075Z,10.23
2023-01-25T09:48:31.169Z,11.70
2023-01-25T09:53:51.820Z,10.60
2023-01-25T09:58:59.582Z,11.40
2023-01-25T10:04:09.868Z,12.70
2023-01-25T10:09:22.345Z,15.53
2023-01-25T10:14:25.299Z,13.17
2023-01-25T10:19:55.404Z,15.50
2023-01-25T10:25:15.436Z,15.70
2023-01-25T10:30:21.889Z,16.57
2023-01-25T10:35:36.762Z,18.20
2023-01-25T10:41:20.157Z,15.47
2023-01-25T10:46:25.657Z,14.10
2023-01-25T10:51:33.790Z,15.27
2023-01-25T10:56:39.639Z,17.07
2023-01-25T11:01:42.992Z,19.03
2023-01-25T11:06:51.512Z,14.90
2023-01-25T11:12:18.924Z,20.97
2023-01-25T11:17:23.955Z,17.70
2023-01-25T11:22:28.752Z,16.43
2023-01-25T11:27:31.429Z,15.33
2023-01-25T11:32:34.349Z,17.90
2023-01-25T11:37:41.835Z,18.73
2023-01-25T11:43:09.845Z,13.10
2023-01-25T11:48:20.884Z,10.80
2023-01-25T11:54:14.415Z,13.60
2023-01-25T11:59:44.281Z,16.27
2023-01-25T12:05:12.627Z,15.23
2023-01-25T12:10:27.355Z,19.53
2023-01-25T12:15:55.294Z,23.80
2023-01-25T12:20:57.780Z,22.80
2023-01-25T12:26:18.708Z,12.60
2023-01-25T12:31:32.556Z,12.60
2023-01-25T12:36:43.956Z,12.90
2023-01-25T12:41:48.718Z,17.37
2023-01-25T12:47:00.935Z,12.20
2023-01-25T12:52:07.803Z,15.93
2023-01-25T12:57:26.044Z,20.30
2023-01-25T13:02:50.980Z,23.83
2023-01-25T13:08:00.846Z,20.77
2023-01-25T13:13:20.882Z,20.57
2023-01-25T13:18:29.641Z,16.50
2023-01-25T13:23:58.086Z,22.40
2023-01-25T13:29:01.174Z,18.77
2023-01-25T13:34:05.953Z,23.27
2023-01-25T13:39:23.556Z,17.20
2023-01-25T13:44:29.494Z,17.83
2023-01-25T13:49:40.977Z,17.60
2023-01-25T13:54:45.347Z,18.73
2023-01-25T13:59:49.526Z,17.67
2023-01-25T14:04:53.952Z,18.37
2023-01-25T14:09:57.139Z,20.43
2023-01-25T14:15:24.695Z,18.80
2023-01-25T14:20:27.293Z,19.27
2023-01-25T14:25:29.866Z,21.87
2023-01-25T14:30:34.795Z,31.83
2023-01-25T14:35:42.842Z,19.23
2023-01-25T14:40:59.192Z,27.03
2023-01-25T14:46:01.725Z,23.20
2023-01-25T14:51:17.170Z,27.90
2023-01-25T14:56:39.973Z,22.23
2023-01-25T15:01:42.457Z,30.73
2023-01-25T15:06:50.266Z,22.47
2023-01-25T15:12:00.416Z,26.60
2023-01-25T15:17:02.950Z,25.83
2023-01-25T15:22:08.607Z,24.53
2023-01-25T15:27:12.027Z,38.73
2023-01-25T15:32:21.640Z,38.57
2023-01-25T15:37:24.102Z,40.47
2023-01-25T15:42:29.003Z,42.47
2023-01-25T15:47:32.041Z,28.53
2023-01-25T15:52:34.569Z,32.60
2023-01-25T15:57:37.278Z,34.40
2023-01-25T16:02:39.933Z,28.23
2023-01-25T16:07:43.772Z,28.13
2023-01-25T16:12:46.474Z,29.30
2023-01-25T16:17:48.893Z,25.93
2023-01-25T16:22:51.454Z,33.80
2023-01-25T16:27:54.028Z,30.90
2023-01-25T16:32:56.653Z,35.43
2023-01-25T16:37:59.263Z,31.43
2023-01-25T16:43:02.090Z,36.73
2023-01-25T16:48:04.855Z,28.90
2023-01-25T16:53:07.390Z,31.77
2023-01-25T16:58:09.965Z,31.40
2023-01-25T17:03:12.477Z,33.07
2023-01-25T17:08:15.016Z,39.07
2023-01-25T17:13:17.632Z,49.70
2023-01-25T17:18:20.236Z,57.50
2023-01-25T17:23:22.812Z,36.80
2023-01-25T17:28:25.611Z,38.87
2023-01-25T17:33:29.002Z,47.60
2023-01-25T17:38:31.545Z,39.93
2023-01-25T17:43:34.759Z,36.63
2023-01-25T17:48:37.275Z,42.27
2023-01-25T17:53:39.803Z,39.00
2023-01-25T17:58:42.629Z,45.77
2023-01-25T18:03:47.327Z,38.97
2023-01-25T18:08:51.699Z,37.80
2023-01-25T18:13:57.141Z,36.13
2023-01-25T18:19:00.871Z,34.73
2023-01-25T18:24:27.414Z,41.47
2023-01-25T18:29:48.715Z,39.40
2023-01-25T18:34:51.861Z,45.03
2023-01-25T18:39:55.792Z,32.07
2023-01-25T18:44:58.679Z,47.33
2023-01-25T18:50:02.068Z,46.73
2023-01-25T18:55:04.876Z,51.90
2023-01-25T19:00:11.041Z,44.43
2023-01-25T19:05:14.507Z,41.83
2023-01-25T19:10:18.585Z,76.93
2023-01-25T19:15:21.577Z,72.37
2023-01-25T19:20:26.520Z,44.47
2023-01-25T19:25:30.765Z,71.33
2023-01-25T19:30:33.659Z,71.63
2023-01-25T19:35:36.662Z,83.23
2023-01-25T19:40:39.918Z,77.47
2023-01-25T19:45:43.091Z,86.77
2023-01-25T19:50:46.176Z,78.73
2023-01-25T19:55:49.122Z,91.43
2023-01-25T20:00:52.080Z,83.30
2023-01-25T20:05:59.707Z,96.93
2023-01-25T20:11:08.549Z,99.93
2023-01-25T20:16:12.807Z,102.47
2023-01-25T20:21:22.473Z,105.50
2023-01-25T20:26:32.643Z,103.07
2023-01-25T20:31:38.890Z,92.63
2023-01-25T20:36:42.805Z,91.50
2023-01-25T20:41:47.170Z,87.30
2023-01-25T20:46:52.273Z,96.37
2023-01-25T20:51:55.506Z,93.93
2023-01-25T20:56:58.613Z,86.33
2023-01-25T21:02:01.801Z,92.27
2023-01-25T21:07:04.707Z,86.70
2023-01-25T21:12:08.168Z,85.97
2023-01-25T21:17:11.556Z,86.83
2023-01-25T21:22:14.270Z,103.27
2023-01-25T21:27:17.251Z,104.00
2023-01-25T21:32:19.924Z,104.13
2023-01-25T21:37:22.623Z,108.00
2023-01-25T21:42:25.233Z,106.03
2023-01-25T21:47:31.390Z,96.40
2023-01-25T21:52:37.314Z,91.03
2023-01-25T21:57:47.249Z,90.30
2023-01-25T22:02:51.989Z,71.60
2023-01-25T22:07:54.995Z,105.30
2023-01-25T22:12:57.527Z,109.43
2023-01-25T22:17:59.960Z,89.73
2023-01-25T22:23:02.945Z,82.00
2023-01-25T22:28:12.201Z,84.40
2023-01-25T22:33:14.695Z,80.13
2023-01-25T22:38:17.596Z,90.77
2023-01-25T22:43:19.991Z,79.43
2023-01-25T22:48:22.901Z,85.57
2023-01-25T22:53:25.274Z,84.83
2023-01-25T22:58:28.343Z,77.20
2023-01-25T23:03:31.154Z,82.00
2023-01-25T23:08:35.691Z,81.73
2023-01-25T23:13:39.932Z,85.03
2023-01-25T23:18:51.676Z,86.00
2023-01-25T23:23:55.170Z,91.43
2023-01-25T23:28:58.125Z,80.77
2023-01-25T23:34:03.035Z,96.60
2023-01-25T23:39:05.866Z,94.70
2023-01-25T23:44:09.870Z,76.87
2023-01-25T23:54:43.675Z,80.60
2023-01-25T23:59:46.235Z,68.57
